createdAt,value
2022-12-25T00:00:48.552Z,100425.27
2022-12-25T00:03:47.041Z,100424.77
2022-12-25T00:06:33.674Z,100426.81
2022-12-25T00:09:20.373Z,100435.05
2022-12-25T00:12:06.826Z,100433.40
2022-12-25T00:14:53.058Z,100441.14
2022-12-25T00:17:39.814Z,100445.40
2022-12-25T00:20:26.239Z,100446.80
2022-12-25T00:23:12.788Z,100459.66
2022-12-25T00:25:59.611Z,100466.06
2022-12-25T00:28:46.537Z,100473.06
2022-12-25T00:31:34.779Z,100474.75
2022-12-25T00:34:22.729Z,100476.48
2022-12-25T00:37:14.256Z,100480.92
2022-12-25T00:40:00.566Z,100481.49
2022-12-25T00:42:49.410Z,100484.34
2022-12-25T00:45:35.763Z,100487.98
2022-12-25T00:48:22.228Z,100489.66
2022-12-25T00:51:12.300Z,100498.42
2022-12-25T00:53:59.241Z,100507.67
2022-12-25T00:56:46.919Z,100520.76
2022-12-25T00:59:34.192Z,100528.10
2022-12-25T01:02:23.925Z,100534.09
2022-12-25T01:05:10.717Z,100536.16
2022-12-25T01:08:00.532Z,100545.16
2022-12-25T01:10:54.197Z,100555.59
2022-12-25T01:13:40.500Z,100555.33
2022-12-25T01:16:27.635Z,100550.93
2022-12-25T01:19:31.906Z,100558.41
2022-12-25T01:22:32.370Z,100562.79
2022-12-25T01:25:19.115Z,100562.79
2022-12-25T01:28:11.211Z,100566.41
2022-12-25T01:30:58.383Z,100559.95
2022-12-25T01:33:45.543Z,100557.21
2022-12-25T01:36:31.774Z,100552.23
2022-12-25T01:39:19.145Z,100551.05
2022-12-25T01:42:05.667Z,100552.69
2022-12-25T01:44:52.065Z,100555.85
2022-12-25T01:47:38.563Z,100554.23
2022-12-25T01:50:28.864Z,100552.58
2022-12-25T01:53:15.256Z,100553.82
2022-12-25T01:56:08.133Z,100556.52
2022-12-25T01:58:57.136Z,100561.10
2022-12-25T02:01:44.265Z,100559.16
2022-12-25T02:04:40.445Z,100557.58
2022-12-25T02:07:29.567Z,100553.27
2022-12-25T02:10:16.291Z,100547.38
2022-12-25T02:13:03.958Z,100545.02
2022-12-25T02:16:01.339Z,100543.75
2022-12-25T02:19:01.531Z,100545.30
2022-12-25T02:22:07.225Z,100538.84
2022-12-25T02:25:12.711Z,100541.76
2022-12-25T02:28:20.716Z,100546.42
2022-12-25T02:31:10.468Z,100556.69
2022-12-25T02:34:13.293Z,100549.56
2022-12-25T02:37:02.894Z,100544.92
2022-12-25T02:39:58.488Z,100544.94
2022-12-25T02:43:03.745Z,100543.08
2022-12-25T02:46:18.070Z,100542.13
2022-12-25T02:49:28.966Z,100539.17
2022-12-25T02:52:39.284Z,100542.25
2022-12-25T02:55:51.548Z,100538.63
2022-12-25T02:58:59.033Z,100533.44
2022-12-25T03:02:05.035Z,100523.52
2022-12-25T03:05:12.726Z,100531.60
2022-12-25T03:08:03.583Z,100540.48
2022-12-25T03:11:19.034Z,100545.78
2022-12-25T03:14:26.801Z,100544.13
2022-12-25T03:17:13.378Z,100555.08
2022-12-25T03:20:20.119Z,100556.70
2022-12-25T03:23:26.159Z,100561.65
2022-12-25T03:26:31.798Z,100563.02
2022-12-25T03:29:36.682Z,100557.33
2022-12-25T03:32:43.761Z,100557.63
2022-12-25T03:35:46.988Z,100552.85
2022-12-25T03:39:27.703Z,100553.96
2022-12-25T03:42:37.654Z,100555.29
2022-12-25T03:46:04.727Z,100556.63
2022-12-25T03:49:20.908Z,100560.96
2022-12-25T03:52:28.349Z,100563.57
2022-12-25T03:55:36.355Z,100561.44
2022-12-25T03:58:44.232Z,100564.20
2022-12-25T04:01:49.238Z,100568.32
2022-12-25T04:04:54.431Z,100571.03
2022-12-25T04:07:59.788Z,100577.16
2022-12-25T04:11:05.140Z,100577.27
2022-12-25T04:14:10.043Z,100585.56
2022-12-25T04:17:15.220Z,100586.59
2022-12-25T04:20:20.382Z,100588.20
2022-12-25T04:23:25.598Z,100589.13
2022-12-25T04:26:30.822Z,100582.80
2022-12-25T04:29:35.704Z,100577.70
2022-12-25T04:32:40.421Z,100574.40
2022-12-25T04:35:45.673Z,100581.18
2022-12-25T04:38:32.103Z,100582.83
2022-12-25T04:41:18.639Z,100584.88
2022-12-25T04:44:05.177Z,100582.78
2022-12-25T04:46:51.600Z,100583.75
2022-12-25T04:49:38.212Z,100590.53
2022-12-25T04:52:25.069Z,100589.97
2022-12-25T04:55:12.015Z,100592.35
2022-12-25T04:57:58.391Z,100598.91
2022-12-25T05:00:45.107Z,100602.04
2022-12-25T05:03:32.384Z,100603.16
2022-12-25T05:06:19.445Z,100598.02
2022-12-25T05:09:06.069Z,100593.81
2022-12-25T05:11:52.747Z,100597.13
2022-12-25T05:25:39.787Z,100586.83
2022-12-25T05:28:25.410Z,100591.50
2022-12-25T05:31:11.077Z,100599.73
2022-12-25T05:33:56.440Z,100608.70
2022-12-25T05:36:41.570Z,100611.02
2022-12-25T05:42:37.425Z,100604.96
2022-12-25T05:45:22.818Z,100616.85
2022-12-25T05:48:09.850Z,100619.06
2022-12-25T05:50:54.718Z,100624.80
2022-12-25T05:53:41.078Z,100633.16
2022-12-25T05:56:26.773Z,100638.93
2022-12-25T05:59:11.793Z,100642.29
2022-12-25T06:01:57.417Z,100645.23
2022-12-25T06:04:42.741Z,100651.92
2022-12-25T06:07:28.125Z,100651.44
2022-12-25T06:10:13.386Z,100651.40
2022-12-25T06:12:58.717Z,100654.95
2022-12-25T06:15:44.156Z,100654.38
2022-12-25T06:18:29.290Z,100655.79
2022-12-25T06:21:15.638Z,100657.26
2022-12-25T06:24:01.081Z,100662.83
2022-12-25T06:26:46.605Z,100665.09
2022-12-25T06:29:31.828Z,100672.53
2022-12-25T06:32:18.014Z,100686.30
2022-12-25T06:35:03.371Z,100695.10
2022-12-25T06:37:48.332Z,100696.15
2022-12-25T06:40:34.315Z,100700.20
2022-12-25T06:43:19.621Z,100706.02
2022-12-25T06:46:07.476Z,100712.53
2022-12-25T06:48:53.787Z,100720.77
2022-12-25T06:51:40.654Z,100720.42
2022-12-25T06:54:25.441Z,100719.58
2022-12-25T06:57:10.667Z,100716.52
2022-12-25T06:59:55.770Z,100729.05
2022-12-25T07:02:46.796Z,100732.30
2022-12-25T07:05:32.008Z,100737.73
2022-12-25T07:08:19.340Z,100741.70
2022-12-25T07:11:04.793Z,100751.79
2022-12-25T07:13:49.988Z,100752.02
2022-12-25T07:16:36.502Z,100754.86
2022-12-25T07:19:21.797Z,100757.23
2022-12-25T07:22:09.306Z,100759.92
2022-12-25T07:24:54.866Z,100758.90
2022-12-25T07:27:49.099Z,100763.45
2022-12-25T07:30:34.211Z,100764.83
2022-12-25T07:33:19.785Z,100766.35
2022-12-25T07:36:05.342Z,100773.29
2022-12-25T07:38:50.798Z,100778.70
2022-12-25T07:41:36.000Z,100785.89
2022-12-25T07:44:21.683Z,100786.70
2022-12-25T07:47:06.973Z,100785.66
2022-12-25T07:49:51.839Z,100790.95
2022-12-25T07:52:43.286Z,100797.09
2022-12-25T07:55:29.241Z,100800.16
2022-12-25T07:58:18.572Z,100806.54
2022-12-25T08:01:16.173Z,100813.00
2022-12-25T08:04:02.265Z,100819.67
2022-12-25T08:06:47.736Z,100819.86
2022-12-25T08:09:34.873Z,100821.88
2022-12-25T08:12:19.842Z,100824.02
2022-12-25T08:15:08.166Z,100827.19
2022-12-25T08:17:53.146Z,100827.58
2022-12-25T08:20:39.006Z,100835.79
2022-12-25T08:23:24.421Z,100839.58
2022-12-25T08:26:16.340Z,100841.39
2022-12-25T08:29:01.791Z,100846.04
2022-12-25T08:31:47.018Z,100846.91
2022-12-25T08:34:32.558Z,100851.12
2022-12-25T08:37:17.652Z,100855.63
2022-12-25T08:40:03.340Z,100858.87
2022-12-25T08:42:48.649Z,100862.90
2022-12-25T08:45:35.605Z,100864.98
2022-12-25T08:48:21.213Z,100869.52
2022-12-25T08:51:10.978Z,100874.71
2022-12-25T08:53:59.200Z,100874.82
2022-12-25T08:56:44.467Z,100878.26
2022-12-25T08:59:35.639Z,100885.02
2022-12-25T09:02:20.751Z,100888.41
2022-12-25T09:05:07.195Z,100888.55
2022-12-25T09:07:55.201Z,100896.54
2022-12-25T09:10:41.109Z,100900.98
2022-12-25T09:13:26.226Z,100904.30
2022-12-25T09:16:14.469Z,100904.95
2022-12-25T09:19:00.026Z,100908.96
2022-12-25T09:21:45.294Z,100910.40
2022-12-25T09:24:30.657Z,100913.11
2022-12-25T09:27:15.825Z,100910.77
2022-12-25T09:30:01.065Z,100912.43
2022-12-25T09:32:46.753Z,100911.01
2022-12-25T09:35:32.116Z,100914.25
2022-12-25T09:38:17.498Z,100914.78
2022-12-25T09:41:19.982Z,100912.85
2022-12-25T09:44:28.217Z,100906.94
2022-12-25T09:47:17.354Z,100897.48
2022-12-25T09:50:20.607Z,100898.89
2022-12-25T09:53:21.442Z,100889.33
2022-12-25T09:56:19.445Z,100887.10
2022-12-25T09:59:16.642Z,100886.64
2022-12-25T10:02:23.298Z,100896.39
2022-12-25T10:05:55.224Z,100900.65
2022-12-25T10:09:02.666Z,100900.91
2022-12-25T10:12:01.022Z,100900.48
2022-12-25T10:15:15.202Z,100896.36
2022-12-25T10:18:16.761Z,100892.33
2022-12-25T10:21:11.049Z,100894.59
2022-12-25T10:23:58.151Z,100897.90
2022-12-25T10:26:44.669Z,100899.15
2022-12-25T10:29:34.910Z,100899.84
2022-12-25T10:32:21.128Z,100906.96
2022-12-25T10:35:23.650Z,100902.27
2022-12-25T10:38:15.519Z,100903.86
2022-12-25T10:41:27.081Z,100905.77
2022-12-25T10:44:21.134Z,100907.52
2022-12-25T10:47:06.448Z,100899.33
2022-12-25T10:49:52.346Z,100898.62
2022-12-25T10:52:53.381Z,100907.30
2022-12-25T10:55:38.928Z,100907.95
2022-12-25T10:58:24.583Z,100905.94
2022-12-25T11:01:11.500Z,100903.39
2022-12-25T11:03:56.890Z,100897.27
2022-12-25T11:06:42.853Z,100895.45
2022-12-25T11:09:31.722Z,100896.29
2022-12-25T11:12:19.497Z,100894.00
2022-12-25T11:15:33.537Z,100893.04
2022-12-25T11:18:28.098Z,100886.83
2022-12-25T11:21:29.757Z,100888.10
2022-12-25T11:24:21.851Z,100887.64
2022-12-25T11:27:06.812Z,100895.79
2022-12-25T11:29:54.263Z,100892.49
2022-12-25T11:32:45.988Z,100888.34
2022-12-25T11:35:42.362Z,100884.68
2022-12-25T11:38:27.737Z,100884.95
2022-12-25T11:41:19.748Z,100887.84
2022-12-25T11:44:34.433Z,100885.84
2022-12-25T11:47:49.548Z,100884.68
2022-12-25T11:50:41.893Z,100889.63
2022-12-25T11:53:44.593Z,100894.01
2022-12-25T11:56:31.220Z,100896.02
2022-12-25T11:59:34.800Z,100899.56
2022-12-25T12:02:59.639Z,100900.98
2022-12-25T12:05:58.390Z,100903.52
2022-12-25T12:08:48.697Z,100903.80
2022-12-25T12:11:45.918Z,100903.66
2022-12-25T12:14:39.581Z,100902.46
2022-12-25T12:17:26.803Z,100907.54
2022-12-25T12:20:28.768Z,100910.39
2022-12-25T12:23:16.978Z,100914.96
2022-12-25T12:26:04.618Z,100918.64
2022-12-25T12:28:54.420Z,100931.14
2022-12-25T12:31:43.778Z,100928.73
2022-12-25T12:34:48.110Z,100927.02
2022-12-25T12:37:38.767Z,100931.96
2022-12-25T12:40:36.881Z,100933.98
2022-12-25T12:43:26.737Z,100936.05
2022-12-25T12:46:19.185Z,100931.38
2022-12-25T12:49:25.285Z,100923.48
2022-12-25T12:52:25.350Z,100918.95
2022-12-25T12:55:15.140Z,100918.55
2022-12-25T12:58:04.677Z,100918.53
2022-12-25T13:01:22.288Z,100917.39
2022-12-25T13:04:22.669Z,100917.78
2022-12-25T13:07:44.382Z,100917.53
2022-12-25T13:10:37.213Z,100909.04
2022-12-25T13:13:30.457Z,100905.52
2022-12-25T13:16:25.393Z,100906.91
2022-12-25T13:19:19.322Z,100899.34
2022-12-25T13:22:06.809Z,100895.35
2022-12-25T13:25:03.049Z,100897.78
2022-12-25T13:27:59.584Z,100906.06
2022-12-25T13:30:47.126Z,100914.84
2022-12-25T13:33:35.075Z,100917.45
2022-12-25T13:36:22.081Z,100923.74
2022-12-25T13:47:14.178Z,100931.64
2022-12-25T13:50:14.735Z,100933.23
2022-12-25T13:53:13.547Z,100934.73
2022-12-25T13:55:59.807Z,100938.96
2022-12-25T13:58:48.281Z,100948.42
2022-12-25T14:01:34.934Z,100946.40
2022-12-25T14:04:24.237Z,100949.61
2022-12-25T14:07:12.189Z,100952.13
2022-12-25T14:10:02.044Z,100952.45
2022-12-25T14:19:03.597Z,100964.14
2022-12-25T14:22:13.872Z,100971.48
2022-12-25T14:25:01.816Z,100976.89
2022-12-25T14:27:56.174Z,100976.35
2022-12-25T14:30:42.931Z,100973.77
2022-12-25T14:33:37.013Z,100973.90
2022-12-25T14:36:23.742Z,100978.23
2022-12-25T14:39:30.783Z,100975.50
2022-12-25T14:42:23.293Z,100978.13
2022-12-25T14:45:35.660Z,100985.72
2022-12-25T14:48:25.774Z,100983.58
2022-12-25T14:51:17.629Z,100981.51
2022-12-25T14:54:14.170Z,100979.52
2022-12-25T14:57:00.856Z,100982.73
2022-12-25T14:59:55.917Z,100987.00
2022-12-25T15:02:46.315Z,100987.82
2022-12-25T15:05:36.237Z,100988.16
2022-12-25T15:08:24.158Z,100995.44
2022-12-25T15:11:10.693Z,100990.16
2022-12-25T15:13:58.184Z,100991.71
2022-12-25T15:16:51.449Z,100988.74
2022-12-25T15:19:38.976Z,100991.73
2022-12-25T15:22:25.701Z,100991.14
2022-12-25T15:25:14.627Z,100991.45
2022-12-25T15:28:01.536Z,100988.04
2022-12-25T15:30:49.837Z,100984.15
2022-12-25T15:33:40.678Z,100983.20
2022-12-25T15:36:30.742Z,100977.83
2022-12-25T15:39:17.699Z,100981.70
2022-12-25T15:42:13.078Z,100981.09
2022-12-25T15:46:26.806Z,100979.34
2022-12-25T15:49:14.630Z,100981.18
2022-12-25T15:52:03.549Z,100982.83
2022-12-25T15:54:50.279Z,100988.15
2022-12-25T15:57:41.103Z,100989.71
2022-12-25T16:00:27.696Z,100996.09
2022-12-25T16:03:15.599Z,100999.57
2022-12-25T16:06:04.186Z,101000.17
2022-12-25T16:08:50.915Z,101004.93
2022-12-25T16:11:37.870Z,101005.65
2022-12-25T16:14:26.630Z,101000.06
2022-12-25T16:17:15.734Z,100993.12
2022-12-25T16:20:02.235Z,100984.69
2022-12-25T16:22:48.814Z,100982.21
2022-12-25T16:25:36.034Z,100978.30
2022-12-25T16:28:22.593Z,100979.09
2022-12-25T16:31:10.653Z,100979.39
2022-12-25T16:33:57.320Z,100978.67
2022-12-25T16:36:44.382Z,100983.19
2022-12-25T16:39:31.808Z,100987.48
2022-12-25T16:42:18.238Z,100996.70
2022-12-25T16:45:05.343Z,101000.45
2022-12-25T16:47:51.772Z,101001.64
2022-12-25T16:50:39.594Z,101001.83
2022-12-25T16:53:26.068Z,101003.10
2022-12-25T16:56:20.564Z,101000.35
2022-12-25T16:59:07.391Z,100989.94
2022-12-25T17:01:53.860Z,100980.54
2022-12-25T17:04:42.562Z,100986.47
2022-12-25T17:07:35.857Z,100986.36
2022-12-25T17:10:25.550Z,100989.85
2022-12-25T17:13:11.861Z,100989.27
2022-12-25T17:15:58.234Z,100992.52
2022-12-25T17:18:45.258Z,100986.19
2022-12-25T17:21:35.454Z,100986.16
2022-12-25T17:24:22.279Z,100979.43
2022-12-25T17:27:09.757Z,100980.36
2022-12-25T17:31:50.894Z,100983.58
2022-12-25T17:34:39.721Z,100986.38
2022-12-25T17:37:26.024Z,100975.55
2022-12-25T17:40:17.997Z,100967.20
2022-12-25T17:43:04.696Z,100963.92
2022-12-25T17:45:51.064Z,100961.80
2022-12-25T17:48:37.574Z,100952.04
2022-12-25T17:51:26.429Z,100947.38
2022-12-25T17:54:13.435Z,100950.39
2022-12-25T17:56:59.987Z,100950.77
2022-12-25T17:59:50.604Z,100947.30
2022-12-25T18:02:38.055Z,100943.84
2022-12-25T18:05:24.508Z,100939.67
2022-12-25T18:08:11.188Z,100940.17
2022-12-25T18:11:06.220Z,100943.35
2022-12-25T18:13:53.544Z,100949.48
2022-12-25T18:16:43.404Z,100955.26
2022-12-25T18:19:30.068Z,100956.80
2022-12-25T18:22:17.036Z,100959.86
2022-12-25T18:25:04.238Z,100961.92
2022-12-25T18:27:53.091Z,100961.20
2022-12-25T18:30:44.338Z,100956.76
2022-12-25T18:33:31.303Z,100956.16
2022-12-25T18:36:21.281Z,100953.41
2022-12-25T18:39:07.805Z,100952.80
2022-12-25T18:42:13.079Z,100952.22
2022-12-25T18:45:04.386Z,100959.09
2022-12-25T18:47:51.318Z,100960.23
2022-12-25T18:50:40.063Z,100961.05
2022-12-25T18:53:28.763Z,100956.90
2022-12-25T19:02:35.780Z,100944.67
2022-12-25T19:05:23.474Z,100936.46
2022-12-25T19:08:10.387Z,100942.63
2022-12-25T19:10:57.156Z,100945.29
2022-12-25T19:13:44.442Z,100940.69
2022-12-25T19:16:30.931Z,100933.77
2022-12-25T19:19:19.003Z,100929.67
2022-12-25T19:22:21.571Z,100927.69
2022-12-25T19:25:08.441Z,100916.67
2022-12-25T19:27:54.848Z,100912.94
2022-12-25T19:30:41.254Z,100910.73
2022-12-25T19:33:30.220Z,100902.39
2022-12-25T19:36:17.950Z,100901.27
2022-12-25T19:39:06.648Z,100900.52
2022-12-25T19:41:53.236Z,100901.17
2022-12-25T19:44:40.055Z,100892.67
2022-12-25T19:47:27.507Z,100892.35
2022-12-25T19:50:14.128Z,100898.14
2022-12-25T19:53:00.842Z,100901.41
2022-12-25T19:55:47.539Z,100907.79
2022-12-25T19:58:34.389Z,100914.80
2022-12-25T20:01:23.193Z,100915.88
2022-12-25T20:04:10.717Z,100911.16
2022-12-25T20:06:57.362Z,100908.89
2022-12-25T20:09:46.563Z,100908.11
2022-12-25T20:12:33.127Z,100912.16
2022-12-25T20:15:20.124Z,100914.90
2022-12-25T20:18:07.536Z,100916.94
2022-12-25T20:21:02.140Z,100911.64
2022-12-25T20:23:51.507Z,100910.88
2022-12-25T20:26:38.938Z,100905.85
2022-12-25T20:29:25.675Z,100901.86
2022-12-25T20:32:12.617Z,100899.40
2022-12-25T20:34:59.014Z,100895.80
2022-12-25T20:37:45.895Z,100893.80
2022-12-25T20:40:46.769Z,100900.59
2022-12-25T20:43:45.117Z,100895.85
2022-12-25T20:46:32.528Z,100884.83
2022-12-25T20:49:19.284Z,100883.87
2022-12-25T20:52:06.148Z,100883.39
2022-12-25T20:54:52.683Z,100882.00
2022-12-25T20:57:39.076Z,100875.48
2022-12-25T21:00:25.912Z,100870.29
2022-12-25T21:03:12.694Z,100874.23
2022-12-25T21:06:01.105Z,100866.24
2022-12-25T21:08:47.275Z,100865.60
2022-12-25T21:11:34.172Z,100860.66
2022-12-25T21:14:20.896Z,100855.36
2022-12-25T21:17:07.581Z,100856.39
2022-12-25T21:19:56.518Z,100856.34
2022-12-25T21:22:43.139Z,100841.98
2022-12-25T21:25:29.803Z,100836.39
2022-12-25T21:28:16.938Z,100835.02
2022-12-25T21:31:04.188Z,100835.48
2022-12-25T21:33:51.457Z,100830.22
2022-12-25T21:36:41.311Z,100825.88
2022-12-25T21:39:28.109Z,100830.84
2022-12-25T21:42:14.871Z,100832.90
2022-12-25T21:45:01.550Z,100832.52
2022-12-25T21:48:01.685Z,100826.36
2022-12-25T21:51:08.517Z,100828.36
2022-12-25T21:53:55.032Z,100821.63
2022-12-25T21:56:45.555Z,100821.80
2022-12-25T21:59:32.793Z,100825.54
2022-12-25T22:02:19.636Z,100818.81
2022-12-25T22:05:06.672Z,100811.97
2022-12-25T22:07:53.095Z,100811.50
2022-12-25T22:10:40.022Z,100805.27
2022-12-25T22:13:46.801Z,100798.59
2022-12-25T22:16:51.833Z,100785.75
2022-12-25T22:19:43.163Z,100781.24
2022-12-25T22:22:30.779Z,100778.10
2022-12-25T22:25:19.800Z,100775.70
2022-12-25T22:28:08.575Z,100775.54
2022-12-25T22:30:55.532Z,100776.66
2022-12-25T22:33:42.066Z,100767.27
2022-12-25T22:36:28.763Z,100765.39
2022-12-25T22:39:16.081Z,100756.23
2022-12-25T22:42:02.801Z,100742.61
2022-12-25T22:44:49.559Z,100734.03
2022-12-25T22:47:36.157Z,100735.36
2022-12-25T22:50:23.355Z,100730.35
2022-12-25T22:53:10.049Z,100730.23
2022-12-25T22:55:56.665Z,100740.21
2022-12-25T22:58:43.647Z,100737.80
2022-12-25T23:01:30.240Z,100734.98
2022-12-25T23:04:17.709Z,100721.36
2022-12-25T23:07:05.262Z,100718.27
2022-12-25T23:09:51.786Z,100717.98
2022-12-25T23:12:57.498Z,100716.77
2022-12-25T23:15:46.316Z,100728.36
2022-12-25T23:18:51.565Z,100724.43
2022-12-25T23:21:57.129Z,100714.47
2022-12-25T23:25:02.438Z,100715.05
2022-12-25T23:27:49.119Z,100713.17
2022-12-25T23:30:35.889Z,100704.33
2022-12-25T23:33:22.616Z,100700.25
2022-12-25T23:36:13.605Z,100699.81
2022-12-25T23:39:06.641Z,100701.23
2022-12-25T23:41:56.168Z,100708.27
2022-12-25T23:44:44.483Z,100699.81
2022-12-25T23:47:31.037Z,100696.16
2022-12-25T23:50:18.273Z,100693.60
2022-12-25T23:53:05.176Z,100689.27
2022-12-25T23:55:55.805Z,100684.09
2022-12-25T23:58:59.904Z,100676.80
